Time;durP1;ratioP1;P1;durP2;ratioP2;P2;SDS_P1;SDS_P2;PMS_P1;PMS_P2;Temp;Humidity;BMP_temperature;BMP_pressure;BME280_temperature;BME280_humidity;BME280_pressure;Samples;Min_cycle;Max_cycle;Signal;HPM_P1;HPM_P2
2021/08/23 00:01:31;;;;;;;20.10;15.90;;;17.30;99.90;;;;;;4405109;32;20160;-71
2021/08/23 00:03:59;;;;;;;20.10;14.83;;;17.40;99.90;;;;;;4393922;32;20155;-71
2021/08/23 00:06:26;;;;;;;22.13;17.17;;;17.40;99.90;;;;;;4394799;32;20262;-72
2021/08/23 00:08:54;;;;;;;18.70;15.00;;;17.30;99.90;;;;;;4405418;32;20212;-71
2021/08/23 00:11:21;;;;;;;18.47;15.00;;;17.30;99.90;;;;;;4405578;32;20560;-70
2021/08/23 00:13:48;;;;;;;19.27;15.00;;;17.30;99.90;;;;;;4405266;32;20155;-70
2021/08/23 00:16:15;;;;;;;16.87;13.93;;;17.30;99.90;;;;;;4406339;32;20170;-72
2021/08/23 00:18:43;;;;;;;23.30;17.67;;;17.40;99.90;;;;;;4402798;32;20156;-70
2021/08/23 00:21:12;;;;;;;21.73;17.00;;;17.30;99.90;;;;;;4390181;32;20152;-71
2021/08/23 00:23:49;;;;;;;19.63;15.57;;;17.30;99.90;;;;;;4401638;32;20589;-73
2021/08/23 00:26:16;;;;;;;16.53;14.63;;;17.40;99.90;;;;;;4406399;32;20490;-71
2021/08/23 00:28:43;;;;;;;15.70;13.43;;;17.40;99.90;;;;;;4405586;32;20519;-72
2021/08/23 00:31:10;;;;;;;17.23;15.17;;;17.40;99.90;;;;;;4404445;32;20148;-71
2021/08/23 00:33:37;;;;;;;16.60;14.70;;;17.40;99.90;;;;;;4405009;32;20202;-71
2021/08/23 00:36:04;;;;;;;19.77;13.97;;;17.40;99.90;;;;;;4405265;32;20181;-73
2021/08/23 00:38:35;;;;;;;18.63;15.13;;;17.40;99.90;;;;;;4404653;32;20185;-70
2021/08/23 00:41:02;;;;;;;17.47;15.57;;;17.40;99.90;;;;;;4405236;32;20163;-71
2021/08/23 00:43:29;;;;;;;16.37;14.67;;;17.40;99.90;;;;;;4404664;32;20639;-70
2021/08/23 00:45:57;;;;;;;20.23;16.33;;;17.40;99.90;;;;;;4404848;32;20170;-70
2021/08/23 00:48:24;;;;;;;27.20;19.33;;;17.40;99.90;;;;;;4404579;32;20160;-71
2021/08/23 00:50:51;;;;;;;24.60;18.40;;;17.40;99.90;;;;;;4403320;32;20152;-72
2021/08/23 00:53:18;;;;;;;19.27;16.27;;;17.40;99.90;;;;;;4404468;32;20147;-70
2021/08/23 00:55:47;;;;;;;18.00;16.03;;;17.40;99.90;;;;;;4404544;32;20167;-70
2021/08/23 00:58:14;;;;;;;21.57;17.97;;;17.30;99.90;;;;;;4405114;32;20168;-72
2021/08/23 01:00:45;;;;;;;21.10;17.90;;;17.40;99.90;;;;;;4404871;32;20200;-70
2021/08/23 01:03:16;;;;;;;25.27;19.17;;;17.40;99.90;;;;;;4405104;32;20222;-70
2021/08/23 01:05:43;;;;;;;21.47;17.83;;;17.40;99.90;;;;;;4404614;32;20155;-70
2021/08/23 01:08:17;;;;;;;22.40;17.63;;;17.40;99.90;;;;;;4406598;32;20162;-70
2021/08/23 01:10:51;;;;;;;19.87;17.00;;;17.40;99.90;;;;;;4401668;32;20172;-72
2021/08/23 01:13:19;;;;;;;21.07;17.30;;;17.40;99.90;;;;;;4404890;32;20165;-70
2021/08/23 01:15:47;;;;;;;21.67;17.63;;;17.40;99.90;;;;;;4404276;32;20174;-72
2021/08/23 01:18:14;;;;;;;26.70;18.57;;;17.40;99.90;;;;;;4404660;32;20174;-71
2021/08/23 01:20:43;;;;;;;24.47;19.10;;;17.40;99.90;;;;;;4404982;32;20182;-73
2021/08/23 01:23:12;;;;;;;22.60;18.97;;;17.40;99.90;;;;;;4404247;32;20167;-71
2021/08/23 01:25:40;;;;;;;23.43;18.33;;;17.40;99.90;;;;;;4404794;32;20531;-70
2021/08/23 01:28:16;;;;;;;27.43;21.00;;;17.50;99.90;;;;;;4396225;32;20235;-71
2021/08/23 01:30:53;;;;;;;28.10;22.47;;;17.40;99.90;;;;;;4407628;32;20156;-72
2021/08/23 01:33:22;;;;;;;29.17;23.73;;;17.40;99.90;;;;;;4407235;32;20147;-72
2021/08/23 01:35:50;;;;;;;31.37;24.87;;;17.40;99.90;;;;;;4407685;32;20167;-70
2021/08/23 01:38:17;;;;;;;35.90;25.37;;;17.30;99.90;;;;;;4407302;32;20183;-69
2021/08/23 01:40:44;;;;;;;31.07;23.50;;;17.30;99.90;;;;;;4407865;32;20445;-70
2021/08/23 01:43:11;;;;;;;38.73;27.97;;;17.20;99.90;;;;;;4407176;32;20170;-71
2021/08/23 01:45:38;;;;;;;34.13;25.73;;;17.20;99.90;;;;;;4406892;32;20159;-70
2021/08/23 01:48:05;;;;;;;45.20;30.77;;;17.10;99.90;;;;;;4407956;32;20186;-69
2021/08/23 01:50:36;;;;;;;35.20;26.50;;;17.10;99.90;;;;;;4407633;32;20182;-70
2021/08/23 01:53:03;;;;;;;34.37;26.43;;;17.10;99.90;;;;;;4407342;32;20187;-71
2021/08/23 01:55:30;;;;;;;38.93;27.70;;;17.10;99.90;;;;;;4406987;32;20155;-71
2021/08/23 01:58:02;;;;;;;40.40;28.30;;;17.00;99.90;;;;;;4407348;32;20183;-73
2021/08/23 02:00:28;;;;;;;42.07;27.90;;;17.00;99.90;;;;;;4401127;32;20590;-70
2021/08/23 02:02:55;;;;;;;44.67;30.00;;;17.00;99.90;;;;;;4398624;32;20576;-69
2021/08/23 02:05:22;;;;;;;41.17;28.50;;;17.00;99.90;;;;;;4406638;32;20608;-70
2021/08/23 02:07:50;;;;;;;46.10;31.33;;;17.00;99.90;;;;;;4406856;32;20655;-69
2021/08/23 02:10:20;;;;;;;40.90;29.10;;;17.00;99.90;;;;;;4406915;32;20182;-71
2021/08/23 02:12:48;;;;;;;42.57;27.80;;;16.90;99.90;;;;;;4407194;32;20269;-69
2021/08/23 02:15:15;;;;;;;55.90;33.37;;;17.00;99.90;;;;;;4406776;32;20171;-69
2021/08/23 02:17:42;;;;;;;45.73;30.43;;;17.00;99.90;;;;;;4406140;32;20587;-71
2021/08/23 02:20:10;;;;;;;48.67;32.17;;;16.90;99.90;;;;;;4406675;32;20152;-69
2021/08/23 02:22:37;;;;;;;48.90;32.43;;;16.90;99.90;;;;;;4406809;32;20197;-69
2021/08/23 02:25:09;;;;;;;49.07;30.90;;;17.00;99.90;;;;;;4406851;32;20170;-70
2021/08/23 02:27:36;;;;;;;48.00;31.43;;;17.00;99.90;;;;;;4407170;32;20172;-70
2021/08/23 02:30:04;;;;;;;49.53;32.17;;;16.90;99.90;;;;;;4406860;32;20185;-70
2021/08/23 02:32:36;;;;;;;50.63;31.83;;;16.90;99.90;;;;;;4406949;32;20595;-69
2021/08/23 02:35:04;;;;;;;54.97;32.30;;;16.90;99.90;;;;;;4402863;32;20197;-69
2021/08/23 02:37:31;;;;;;;57.83;33.17;;;16.80;99.90;;;;;;4405726;32;20166;-69
2021/08/23 02:39:58;;;;;;;52.37;32.33;;;16.80;99.90;;;;;;4404005;32;20202;-69
2021/08/23 02:42:26;;;;;;;54.57;31.07;;;16.80;99.90;;;;;;4406929;32;20497;-69
2021/08/23 02:44:53;;;;;;;60.03;35.60;;;16.70;99.90;;;;;;4406398;32;20200;-69
2021/08/23 02:47:20;;;;;;;61.53;35.80;;;16.70;99.90;;;;;;4406767;32;20140;-70
2021/08/23 02:49:47;;;;;;;61.10;35.83;;;16.70;99.90;;;;;;4406208;32;20568;-70
2021/08/23 02:52:13;;;;;;;54.47;33.97;;;16.70;99.90;;;;;;4405530;32;20186;-70
2021/08/23 02:54:42;;;;;;;55.57;34.57;;;16.70;99.90;;;;;;4406540;32;20167;-69
2021/08/23 02:57:09;;;;;;;62.37;35.13;;;16.70;99.90;;;;;;4406338;32;20205;-70
2021/08/23 02:59:37;;;;;;;52.73;33.60;;;16.60;99.90;;;;;;4405684;32;20162;-69
2021/08/23 03:02:04;;;;;;;53.23;31.87;;;16.70;99.90;;;;;;4406467;32;20161;-68
2021/08/23 03:04:31;;;;;;;61.83;35.23;;;16.70;99.90;;;;;;4403625;32;20171;-69
2021/08/23 03:06:58;;;;;;;60.27;35.67;;;16.60;99.90;;;;;;4397541;32;20218;-68
2021/08/23 03:09:24;;;;;;;52.50;33.20;;;16.60;99.90;;;;;;4395341;32;20567;-69
2021/08/23 03:11:53;;;;;;;54.20;32.17;;;16.60;99.90;;;;;;4405713;32;20147;-68
2021/08/23 03:14:20;;;;;;;55.23;32.03;;;16.50;99.90;;;;;;4393808;32;20195;-69
2021/08/23 03:16:49;;;;;;;58.57;33.83;;;16.50;99.90;;;;;;4390669;32;20182;-70
2021/08/23 03:19:22;;;;;;;49.80;31.73;;;16.50;99.90;;;;;;4390485;32;20231;-69
2021/08/23 03:21:58;;;;;;;41.67;28.90;;;16.50;99.90;;;;;;4391222;32;20221;-69
2021/08/23 03:24:25;;;;;;;40.90;27.60;;;16.50;99.90;;;;;;4382295;32;20242;-69
2021/08/23 03:26:52;;;;;;;54.80;33.17;;;16.50;99.90;;;;;;4404024;32;20163;-69
2021/08/23 03:29:19;;;;;;;45.17;30.50;;;16.50;99.90;;;;;;4405566;32;20190;-68
2021/08/23 03:31:46;;;;;;;40.80;27.07;;;16.40;99.90;;;;;;4406005;32;20225;-69
2021/08/23 03:34:14;;;;;;;32.93;25.17;;;16.30;99.90;;;;;;4405450;32;20173;-68
2021/08/23 03:36:41;;;;;;;38.20;27.53;;;16.30;99.90;;;;;;4406074;32;20179;-69
2021/08/23 03:39:10;;;;;;;40.73;25.83;;;16.30;99.90;;;;;;4406577;32;20589;-69
2021/08/23 03:41:37;;;;;;;36.27;24.17;;;16.30;99.90;;;;;;4406882;32;20155;-70
2021/08/23 03:44:05;;;;;;;31.63;21.67;;;16.30;99.90;;;;;;4395602;32;20631;-69
2021/08/23 03:46:33;;;;;;;35.13;21.60;;;16.30;99.90;;;;;;4398244;32;20148;-69
2021/08/23 03:49:00;;;;;;;33.60;22.40;;;16.30;99.90;;;;;;4406109;32;20171;-69
2021/08/23 03:51:29;;;;;;;28.63;21.70;;;16.30;99.90;;;;;;4406494;32;20151;-69
2021/08/23 03:53:56;;;;;;;31.70;24.23;;;16.30;99.90;;;;;;4407459;32;20229;-69
2021/08/23 03:56:23;;;;;;;34.20;23.07;;;16.30;99.90;;;;;;4405305;32;20577;-70
2021/08/23 03:58:50;;;;;;;33.87;23.73;;;16.30;99.90;;;;;;4405565;32;20183;-69
2021/08/23 04:01:17;;;;;;;34.70;23.83;;;16.20;99.90;;;;;;4405351;32;20178;-70
2021/08/23 04:03:44;;;;;;;28.50;21.07;;;16.20;99.90;;;;;;4405677;32;20170;-69
2021/08/23 04:06:11;;;;;;;30.60;20.97;;;16.30;99.90;;;;;;4404693;32;20292;-69
2021/08/23 04:08:40;;;;;;;31.13;20.80;;;16.30;99.90;;;;;;4407405;32;20491;-70
2021/08/23 04:11:07;;;;;;;28.40;20.40;;;16.30;99.90;;;;;;4405455;32;20733;-69
2021/08/23 04:13:33;;;;;;;35.57;22.47;;;16.30;99.90;;;;;;4405209;32;20614;-70
2021/08/23 04:16:04;;;;;;;30.83;21.37;;;16.30;99.90;;;;;;4405403;32;20170;-69
2021/08/23 04:18:30;;;;;;;30.30;20.20;;;16.30;99.90;;;;;;4404370;32;20181;-69
2021/08/23 04:20:57;;;;;;;33.57;22.67;;;16.30;99.90;;;;;;4405853;32;20223;-69
2021/08/23 04:23:24;;;;;;;31.33;21.67;;;16.30;99.90;;;;;;4401931;32;20170;-70
2021/08/23 04:25:55;;;;;;;31.37;20.03;;;16.30;99.90;;;;;;4405151;32;20155;-69
2021/08/23 04:28:21;;;;;;;30.43;20.23;;;16.30;99.90;;;;;;4404563;32;20175;-69
2021/08/23 04:30:48;;;;;;;32.23;21.37;;;16.40;99.90;;;;;;4404887;32;20151;-69
2021/08/23 04:33:16;;;;;;;27.43;19.00;;;16.40;99.90;;;;;;4404983;32;20151;-69
2021/08/23 04:35:43;;;;;;;27.77;18.50;;;16.40;99.90;;;;;;4404666;32;20620;-69
2021/08/23 04:38:10;;;;;;;25.83;18.07;;;16.30;99.90;;;;;;4404186;32;20180;-71
2021/08/23 04:40:37;;;;;;;25.57;17.90;;;16.40;99.90;;;;;;4405294;32;20479;-70
2021/08/23 04:43:05;;;;;;;29.90;19.17;;;16.30;99.90;;;;;;4406249;32;20170;-69
2021/08/23 04:45:32;;;;;;;23.97;18.07;;;16.40;99.90;;;;;;4405178;32;20167;-70
2021/08/23 04:47:59;;;;;;;24.27;18.17;;;16.50;99.90;;;;;;4404530;32;20151;-69
2021/08/23 04:50:26;;;;;;;27.73;18.70;;;16.40;99.90;;;;;;4391994;32;20935;-70
2021/08/23 04:52:52;;;;;;;27.37;17.10;;;16.50;99.90;;;;;;4404565;32;20150;-70
2021/08/23 04:55:21;;;;;;;26.93;17.43;;;16.50;99.90;;;;;;4404854;32;20187;-69
2021/08/23 04:57:48;;;;;;;22.33;15.23;;;16.50;99.90;;;;;;4405274;32;20194;-69
2021/08/23 05:00:16;;;;;;;20.77;15.60;;;16.50;99.90;;;;;;4404671;32;20170;-70
2021/08/23 05:02:43;;;;;;;20.63;14.27;;;16.50;99.90;;;;;;4406317;32;20174;-69
2021/08/23 05:05:10;;;;;;;21.73;14.00;;;16.50;99.90;;;;;;4407650;32;20199;-69
2021/08/23 05:07:37;;;;;;;18.60;13.00;;;16.50;99.90;;;;;;4407915;32;20511;-69
2021/08/23 05:10:07;;;;;;;23.10;13.47;;;16.60;99.90;;;;;;4407327;32;20175;-68
2021/08/23 05:12:33;;;;;;;14.80;11.93;;;16.60;99.90;;;;;;4407714;32;20213;-68
2021/08/23 05:15:00;;;;;;;17.27;11.83;;;16.60;99.90;;;;;;4403834;32;20598;-68
2021/08/23 05:17:28;;;;;;;17.57;10.83;;;16.60;99.90;;;;;;4398550;32;20151;-68
2021/08/23 05:19:55;;;;;;;16.60;11.20;;;16.60;99.90;;;;;;4399746;32;20152;-68
2021/08/23 05:22:24;;;;;;;15.03;10.03;;;16.60;99.90;;;;;;4398717;32;20155;-69
2021/08/23 05:24:51;;;;;;;15.47;10.77;;;16.60;99.90;;;;;;4403169;32;20175;-68
2021/08/23 05:27:18;;;;;;;13.00;9.47;;;16.60;99.90;;;;;;4405267;32;20178;-68
2021/08/23 05:29:45;;;;;;;15.57;9.73;;;16.60;99.90;;;;;;4406906;32;20174;-68
2021/08/23 05:32:16;;;;;;;15.37;10.40;;;16.60;99.90;;;;;;4404483;32;20170;-68
2021/08/23 05:34:45;;;;;;;13.53;9.83;;;16.60;99.90;;;;;;4404749;32;20289;-68
2021/08/23 05:37:12;;;;;;;15.60;9.93;;;16.60;99.90;;;;;;4406194;32;20239;-68
2021/08/23 05:39:39;;;;;;;18.00;9.93;;;16.70;99.90;;;;;;4407355;32;20152;-69
2021/08/23 05:42:06;;;;;;;15.40;9.70;;;16.70;99.90;;;;;;4408381;32;20560;-68
2021/08/23 05:44:33;;;;;;;14.27;10.13;;;16.70;99.90;;;;;;4407615;32;20519;-67
2021/08/23 05:46:59;;;;;;;14.93;9.17;;;16.80;99.90;;;;;;4407149;32;20148;-68
2021/08/23 05:49:26;;;;;;;13.87;8.73;;;16.80;99.90;;;;;;4408094;32;20594;-68
2021/08/23 05:51:54;;;;;;;18.10;10.20;;;16.90;99.90;;;;;;4406931;32;20304;-68
2021/08/23 05:54:23;;;;;;;10.13;7.40;;;16.90;99.90;;;;;;4407788;32;20139;-68
2021/08/23 05:56:52;;;;;;;15.13;7.93;;;17.00;99.90;;;;;;4407542;32;20202;-68
2021/08/23 05:59:20;;;;;;;14.03;7.63;;;17.00;99.90;;;;;;4408362;32;20234;-68
2021/08/23 06:01:52;;;;;;;12.03;7.47;;;17.00;99.90;;;;;;4404987;32;20144;-68
2021/08/23 06:04:19;;;;;;;13.87;8.43;;;17.10;99.90;;;;;;4400172;32;20164;-69
2021/08/23 06:06:46;;;;;;;13.97;7.93;;;17.20;99.90;;;;;;4407507;32;20440;-68
2021/08/23 06:09:14;;;;;;;12.17;7.33;;;17.30;99.90;;;;;;4407483;32;20552;-68
2021/08/23 06:11:41;;;;;;;12.63;7.57;;;17.40;99.90;;;;;;4407457;32;20159;-68
2021/08/23 06:14:08;;;;;;;12.87;8.33;;;17.60;99.90;;;;;;4408178;32;20139;-69
2021/08/23 06:16:35;;;;;;;11.57;7.63;;;17.80;99.90;;;;;;4407443;32;20224;-68
2021/08/23 06:19:02;;;;;;;11.17;7.37;;;17.80;99.90;;;;;;4393839;32;20714;-68
2021/08/23 06:21:29;;;;;;;14.07;7.33;;;17.80;99.90;;;;;;4400238;32;20230;-69
2021/08/23 06:23:56;;;;;;;10.83;5.90;;;17.70;99.90;;;;;;4402369;32;20159;-68
2021/08/23 06:26:24;;;;;;;15.87;7.10;;;17.80;99.90;;;;;;4406715;32;20182;-69
2021/08/23 06:28:51;;;;;;;14.07;6.93;;;17.70;99.90;;;;;;4405221;32;20159;-68
2021/08/23 06:31:18;;;;;;;11.27;6.87;;;17.80;99.90;;;;;;4404025;32;20475;-68
2021/08/23 06:33:45;;;;;;;14.47;6.30;;;17.70;99.90;;;;;;4405233;32;20591;-68
2021/08/23 06:36:13;;;;;;;11.80;7.00;;;17.70;99.90;;;;;;4406192;32;20182;-68
2021/08/23 06:38:40;;;;;;;10.77;5.70;;;17.70;99.90;;;;;;4405583;32;20262;-68
2021/08/23 06:41:07;;;;;;;8.67;5.20;;;17.80;99.90;;;;;;4405954;32;20163;-68
2021/08/23 06:43:35;;;;;;;10.50;5.80;;;17.70;99.90;;;;;;4405128;32;20148;-68
2021/08/23 06:46:02;;;;;;;10.37;6.40;;;17.80;99.90;;;;;;4404902;32;20190;-69
2021/08/23 06:48:29;;;;;;;8.10;5.33;;;17.70;99.90;;;;;;4406014;32;20170;-69
2021/08/23 06:50:56;;;;;;;9.47;5.60;;;17.70;99.90;;;;;;4406460;32;20633;-69
2021/08/23 06:53:23;;;;;;;9.67;5.00;;;17.70;99.90;;;;;;4406466;32;20560;-68
2021/08/23 06:55:50;;;;;;;7.93;5.07;;;17.70;99.90;;;;;;4406689;32;20159;-67
2021/08/23 06:58:16;;;;;;;5.40;4.10;;;17.80;99.90;;;;;;4406379;32;20151;-68
2021/08/23 07:00:45;;;;;;;9.73;5.13;;;17.80;99.90;;;;;;4406940;32;20166;-68
2021/08/23 07:03:11;;;;;;;7.53;4.53;;;17.90;99.90;;;;;;4407142;32;20460;-68
2021/08/23 07:05:38;;;;;;;9.47;4.50;;;18.00;99.90;;;;;;4406553;32;20201;-68
2021/08/23 07:08:06;;;;;;;7.33;4.10;;;18.30;99.90;;;;;;4406093;32;20568;-68
2021/08/23 07:10:33;;;;;;;9.00;4.17;;;18.50;99.90;;;;;;4407550;32;20147;-68
2021/08/23 07:13:01;;;;;;;9.07;3.77;;;18.70;99.90;;;;;;4406128;32;20189;-68
2021/08/23 07:15:29;;;;;;;9.93;3.50;;;18.80;99.90;;;;;;4406606;32;20163;-69
2021/08/23 07:18:00;;;;;;;6.77;3.63;;;18.90;99.90;;;;;;4406234;32;20155;-67
2021/08/23 07:20:30;;;;;;;8.73;3.63;;;19.10;99.90;;;;;;4406228;32;20144;-67
2021/08/23 07:22:57;;;;;;;7.77;3.67;;;19.20;99.90;;;;;;4406332;32;20475;-69
2021/08/23 07:25:24;;;;;;;6.47;2.93;;;19.20;99.90;;;;;;4401805;32;20144;-67
2021/08/23 07:27:51;;;;;;;6.90;4.00;;;19.30;99.90;;;;;;4405785;32;20147;-67
2021/08/23 07:30:18;;;;;;;6.17;3.27;;;19.40;99.90;;;;;;4405039;32;20155;-67
2021/08/23 07:32:45;;;;;;;10.33;3.77;;;19.40;99.90;;;;;;4404778;32;20175;-69
2021/08/23 07:35:13;;;;;;;7.43;3.40;;;19.50;99.90;;;;;;4405319;32;20140;-67
2021/08/23 07:37:45;;;;;;;6.23;3.10;;;19.50;99.90;;;;;;4403205;32;20159;-68
2021/08/23 07:40:13;;;;;;;7.63;3.17;;;19.60;99.90;;;;;;4405184;32;20159;-67
2021/08/23 07:42:40;;;;;;;7.50;3.40;;;19.70;99.90;;;;;;4405848;32;20507;-67
2021/08/23 07:45:08;;;;;;;4.10;3.20;;;19.70;99.90;;;;;;4405467;32;20564;-68
2021/08/23 07:47:35;;;;;;;6.93;3.70;;;19.60;99.90;;;;;;4402891;32;20144;-67
2021/08/23 07:50:02;;;;;;;7.83;3.70;;;19.70;99.90;;;;;;4405505;32;20152;-68
2021/08/23 07:52:31;;;;;;;6.03;3.23;;;19.60;99.90;;;;;;4406586;32;20156;-68
2021/08/23 07:54:57;;;;;;;6.93;3.03;;;19.70;99.90;;;;;;4403183;32;20152;-66
2021/08/23 07:57:24;;;;;;;7.43;3.27;;;19.80;99.90;;;;;;4405257;32;20144;-66
2021/08/23 07:59:54;;;;;;;10.07;3.70;;;20.00;99.90;;;;;;4405037;32;20219;-67
2021/08/23 08:02:21;;;;;;;3.50;2.73;;;20.20;99.90;;;;;;4404633;32;20202;-68
2021/08/23 08:04:49;;;;;;;7.03;3.20;;;20.30;99.90;;;;;;4404439;32;20234;-67
2021/08/23 08:07:17;;;;;;;4.67;2.83;;;20.20;99.90;;;;;;4403008;32;20171;-67
2021/08/23 08:09:45;;;;;;;10.17;3.13;;;20.10;99.90;;;;;;4404111;32;20170;-67
2021/08/23 08:12:12;;;;;;;3.57;2.60;;;20.10;99.90;;;;;;4404065;32;20223;-67
2021/08/23 08:14:39;;;;;;;4.87;2.93;;;20.10;99.90;;;;;;4404494;32;20164;-70
2021/08/23 08:17:06;;;;;;;4.67;2.50;;;23.20;99.90;;;;;;4404689;32;20156;-69
2021/08/23 08:19:32;;;;;;;6.57;1.73;;;28.50;99.90;;;;;;4406343;32;20170;-70
2021/08/23 08:22:04;;;;;;;5.53;2.10;;;33.10;93.30;;;;;;4404801;32;20449;-69
2021/08/23 08:24:31;;;;;;;6.03;2.00;;;35.40;80.40;;;;;;4404116;32;20167;-67
2021/08/23 08:26:59;;;;;;;6.05;2.08;;;36.30;75.10;;;;;;4403867;32;20229;-68
2021/08/23 08:29:26;;;;;;;3.55;1.80;;;37.20;65.40;;;;;;4404952;32;20151;-67
2021/08/23 08:31:53;;;;;;;5.30;1.60;;;37.40;64.30;;;;;;4402018;32;20152;-67
2021/08/23 08:34:20;;;;;;;4.82;1.83;;;38.10;60.30;;;;;;4406392;32;20446;-66
2021/08/23 08:36:47;;;;;;;4.93;1.77;;;38.10;57.40;;;;;;4404597;32;20450;-66
2021/08/23 08:39:14;;;;;;;3.97;2.22;;;38.10;56.60;;;;;;4406244;32;20156;-65
2021/08/23 08:41:41;;;;;;;3.87;1.77;;;38.30;55.20;;;;;;4402538;32;20140;-66
2021/08/23 08:44:09;;;;;;;5.70;1.95;;;38.80;54.90;;;;;;4404636;32;20516;-66
2021/08/23 08:46:36;;;;;;;4.50;1.77;;;40.10;53.80;;;;;;4404548;32;20203;-66
2021/08/23 08:49:05;;;;;;;2.08;1.65;;;41.40;50.90;;;;;;4404683;32;20234;-67
2021/08/23 08:51:35;;;;;;;4.12;1.98;;;42.30;49.40;;;;;;4404836;32;20230;-66
2021/08/23 08:54:03;;;;;;;2.62;1.67;;;42.10;46.60;;;;;;4405335;32;20245;-67
2021/08/23 08:56:31;;;;;;;4.55;1.80;;;41.00;46.10;;;;;;4404740;32;20166;-67
2021/08/23 08:58:58;;;;;;;3.22;1.85;;;40.10;46.60;;;;;;4402027;32;20174;-66
2021/08/23 09:01:27;;;;;;;5.75;2.03;;;39.80;48.30;;;;;;4404021;32;20196;-67
2021/08/23 09:03:54;;;;;;;3.12;1.85;;;40.30;47.40;;;;;;4403847;32;20162;-67
2021/08/23 09:06:22;;;;;;;4.72;1.87;;;40.40;46.70;;;;;;4387795;32;20193;-66
2021/08/23 09:08:48;;;;;;;2.97;1.95;;;40.60;46.40;;;;;;4384048;32;20569;-65
2021/08/23 09:11:17;;;;;;;5.28;2.00;;;40.10;46.90;;;;;;4382665;32;20592;-67
2021/08/23 09:13:58;;;;;;;4.40;1.90;;;39.00;47.10;;;;;;4387845;32;20241;-67
2021/08/23 09:16:28;;;;;;;4.40;2.00;;;35.70;51.30;;;;;;4387402;32;20192;-69
2021/08/23 09:18:55;;;;;;;5.37;2.10;;;32.50;54.80;;;;;;4387115;32;20163;-67
2021/08/23 09:21:28;;;;;;;5.32;1.85;;;29.80;59.30;;;;;;4387311;32;20187;-66
2021/08/23 09:24:06;;;;;;;3.53;1.90;;;27.30;64.40;;;;;;4386697;32;20216;-66
2021/08/23 09:26:35;;;;;;;5.32;2.28;;;25.80;71.80;;;;;;4382532;32;20147;-67
2021/08/23 09:29:04;;;;;;;3.03;1.83;;;24.80;78.40;;;;;;4387496;32;20585;-67
2021/08/23 09:31:37;;;;;;;4.93;2.17;;;24.20;86.50;;;;;;4377657;32;20168;-66
2021/08/23 09:34:06;;;;;;;3.27;2.20;;;23.50;90.40;;;;;;4384767;32;20219;-67
2021/08/23 09:36:33;;;;;;;7.17;2.30;;;23.20;94.60;;;;;;4382658;32;20174;-67
2021/08/23 09:39:02;;;;;;;3.40;1.87;;;23.10;97.40;;;;;;4386097;32;20530;-68
2021/08/23 09:41:29;;;;;;;5.00;2.47;;;23.20;98.50;;;;;;4388575;32;20160;-68
2021/08/23 09:44:04;;;;;;;5.37;2.10;;;23.40;98.30;;;;;;4386007;32;20173;-69
2021/08/23 09:46:33;;;;;;;4.17;2.10;;;23.50;97.40;;;;;;4383757;32;20143;-68
2021/08/23 09:49:02;;;;;;;4.07;2.07;;;23.40;98.20;;;;;;4391467;32;20205;-68
2021/08/23 09:51:31;;;;;;;5.53;2.07;;;23.30;97.80;;;;;;4388840;32;20164;-68
2021/08/23 09:54:10;;;;;;;5.60;2.03;;;23.00;99.10;;;;;;4385790;32;20191;-68
2021/08/23 09:56:44;;;;;;;3.37;1.97;;;23.00;99.50;;;;;;4387391;32;20167;-68
2021/08/23 09:59:15;;;;;;;7.97;2.57;;;23.20;99.90;;;;;;4384522;32;20167;-68
2021/08/23 10:01:44;;;;;;;5.17;1.93;;;23.20;99.90;;;;;;4381920;32;20228;-68
2021/08/23 10:04:12;;;;;;;4.40;1.90;;;23.60;99.90;;;;;;4388772;32;20176;-68
2021/08/23 10:06:41;;;;;;;5.82;2.10;;;23.90;99.70;;;;;;4406755;32;20217;-68
2021/08/23 10:09:08;;;;;;;5.47;1.90;;;24.00;99.90;;;;;;4404733;32;20219;-68
2021/08/23 10:11:36;;;;;;;7.07;2.00;;;24.00;99.50;;;;;;4406800;32;20187;-68
2021/08/23 10:14:04;;;;;;;3.80;1.92;;;23.80;99.80;;;;;;4408141;32;20238;-68
2021/08/23 10:16:33;;;;;;;6.40;1.80;;;24.00;99.80;;;;;;4407503;32;20164;-69
2021/08/23 10:19:01;;;;;;;4.53;1.98;;;23.90;99.90;;;;;;4409013;32;20586;-68
2021/08/23 10:21:28;;;;;;;5.62;2.10;;;24.10;99.40;;;;;;4408462;32;20483;-67
2021/08/23 10:23:57;;;;;;;4.47;2.77;;;24.50;99.90;;;;;;4407280;32;20152;-68
2021/08/23 10:26:24;;;;;;;4.97;2.13;;;24.70;98.70;;;;;;4408467;32;20160;-70
2021/08/23 10:28:52;;;;;;;5.23;2.00;;;24.80;99.90;;;;;;4406464;32;20203;-69
2021/08/23 10:31:21;;;;;;;4.15;2.10;;;24.60;99.80;;;;;;4406212;32;20184;-69
2021/08/23 10:33:50;;;;;;;3.10;1.92;;;24.30;99.10;;;;;;4405460;32;20193;-67
2021/08/23 10:36:19;;;;;;;8.23;2.20;;;24.10;99.90;;;;;;4404880;32;20603;-69
2021/08/23 10:38:48;;;;;;;6.43;2.10;;;24.40;99.90;;;;;;4408871;32;20166;-68
2021/08/23 10:41:16;;;;;;;3.72;1.90;;;24.40;99.90;;;;;;4407011;32;20155;-68
2021/08/23 10:43:48;;;;;;;5.32;2.25;;;24.00;99.80;;;;;;4406285;32;20175;-68
2021/08/23 10:46:27;;;;;;;4.32;2.28;;;23.50;99.90;;;;;;4408058;32;20447;-69
2021/08/23 10:48:56;;;;;;;3.08;1.83;;;23.30;99.90;;;;;;4405979;32;20215;-68
2021/08/23 10:51:32;;;;;;;3.15;2.20;;;23.40;99.90;;;;;;4406188;32;20211;-68
2021/08/23 10:54:00;;;;;;;2.97;1.98;;;23.50;99.90;;;;;;4405989;32;20174;-68
2021/08/23 10:56:38;;;;;;;3.62;2.15;;;23.60;99.90;;;;;;4404264;32;20190;-68
2021/08/23 10:59:16;;;;;;;4.62;2.30;;;23.80;99.90;;;;;;4404350;32;20166;-68
2021/08/23 11:01:59;;;;;;;6.57;2.15;;;23.80;99.90;;;;;;4405947;32;20175;-68
2021/08/23 11:04:32;;;;;;;5.03;2.72;;;23.80;99.90;;;;;;4269397;32;4325263;-69
2021/08/23 11:07:01;;;;;;;4.97;2.40;;;24.10;99.60;;;;;;4407376;32;20302;-68
2021/08/23 11:09:32;;;;;;;3.22;2.28;;;24.80;99.90;;;;;;4406241;32;20163;-70
2021/08/23 11:12:12;;;;;;;2.50;1.73;;;24.60;98.90;;;;;;4400620;32;20600;-71
2021/08/23 11:14:51;;;;;;;4.43;2.00;;;24.30;99.60;;;;;;4406207;32;20186;-70
2021/08/23 11:17:29;;;;;;;7.63;2.40;;;24.30;99.90;;;;;;4404492;32;20155;-69
2021/08/23 11:19:57;;;;;;;4.93;2.15;;;24.50;99.50;;;;;;4405891;32;20171;-69
2021/08/23 11:22:25;;;;;;;6.65;2.45;;;24.10;98.40;;;;;;4407914;32;20181;-69
2021/08/23 11:24:53;;;;;;;4.62;2.20;;;24.30;99.30;;;;;;4406453;32;20491;-69
2021/08/23 11:27:19;;;;;;;3.15;1.95;;;24.30;99.20;;;;;;4402339;32;20658;-70
2021/08/23 11:29:52;;;;;;;4.35;2.45;;;24.30;99.60;;;;;;4404104;32;20163;-69
2021/08/23 11:32:19;;;;;;;3.45;2.20;;;24.00;99.70;;;;;;4405935;32;20194;-69
2021/08/23 11:34:51;;;;;;;5.85;2.55;;;24.00;99.90;;;;;;4406472;32;20148;-70
2021/08/23 11:37:24;;;;;;;6.85;2.35;;;24.10;99.80;;;;;;4406861;32;20148;-69
2021/08/23 11:40:07;;;;;;;7.28;2.20;;;24.30;99.90;;;;;;4407180;32;20196;-70
2021/08/23 11:42:34;;;;;;;4.03;2.53;;;24.40;99.90;;;;;;4406836;32;20189;-71
2021/08/23 11:45:01;;;;;;;5.53;2.37;;;24.50;99.90;;;;;;4405594;32;20190;-70
2021/08/23 11:47:34;;;;;;;2.67;1.80;;;24.10;99.90;;;;;;4405396;32;20159;-66
2021/08/23 11:50:01;;;;;;;6.57;2.15;;;23.80;99.90;;;;;;4403614;32;20182;-67
2021/08/23 11:52:29;;;;;;;4.72;1.98;;;23.70;99.90;;;;;;4405390;32;20160;-64
2021/08/23 11:54:57;;;;;;;3.90;1.90;;;23.70;99.90;;;;;;4405289;32;20190;-66
2021/08/23 11:57:27;;;;;;;3.00;1.70;;;24.00;99.90;;;;;;4406590;32;20202;-66
2021/08/23 11:59:55;;;;;;;6.75;2.00;;;24.10;99.90;;;;;;4407369;32;20177;-65
2021/08/23 12:02:27;;;;;;;2.95;2.20;;;23.90;99.90;;;;;;4405483;32;20159;-68
2021/08/23 12:04:54;;;;;;;5.80;2.25;;;23.70;99.90;;;;;;4405074;32;20236;-66
2021/08/23 12:07:21;;;;;;;4.35;2.72;;;23.80;99.90;;;;;;4405184;32;20187;-66
2021/08/23 12:10:00;;;;;;;5.35;2.00;;;24.00;99.90;;;;;;4406285;32;20224;-67
2021/08/23 12:12:27;;;;;;;3.30;2.12;;;23.80;99.60;;;;;;4403303;32;20177;-68
2021/08/23 12:14:58;;;;;;;5.80;1.92;;;23.40;99.90;;;;;;4403640;32;20216;-68
2021/08/23 12:17:30;;;;;;;4.53;2.00;;;23.60;99.90;;;;;;4404800;32;20167;-69
2021/08/23 12:20:05;;;;;;;5.95;2.33;;;23.60;99.90;;;;;;4406575;32;20216;-70
2021/08/23 12:22:32;;;;;;;2.45;1.70;;;23.70;99.90;;;;;;4406231;32;20174;-68
2021/08/23 12:25:02;;;;;;;4.93;1.80;;;23.60;99.90;;;;;;4406483;32;20592;-68
2021/08/23 12:27:29;;;;;;;5.15;2.17;;;23.70;99.90;;;;;;4405453;32;20152;-67
2021/08/23 12:29:58;;;;;;;6.60;2.03;;;23.80;99.90;;;;;;4405460;32;20147;-67
2021/08/23 12:32:34;;;;;;;3.62;1.80;;;23.90;99.90;;;;;;4404755;32;20688;-70
2021/08/23 12:35:01;;;;;;;4.73;2.70;;;23.70;99.90;;;;;;4406365;32;20197;-68
2021/08/23 12:37:30;;;;;;;3.75;2.05;;;23.50;99.90;;;;;;4405882;32;20167;-68
2021/08/23 12:39:57;;;;;;;5.93;3.03;;;23.40;99.90;;;;;;4405464;32;20165;-67
2021/08/23 12:42:25;;;;;;;5.07;1.80;;;23.40;99.90;;;;;;4405330;32;20152;-68
2021/08/23 12:44:52;;;;;;;4.40;1.87;;;23.70;99.90;;;;;;4405609;32;20160;-66